sensor_id;sensor_type;location;lat;lon;timestamp;P1;durP1;ratioP1;P2;durP2;ratioP2
42332;SDS011;27984;51.476;5.702;2023-09-19T00:00:57;17.58;;;3.10;;
42332;SDS011;27984;51.476;5.702;2023-09-19T00:03:23;13.73;;;3.03;;
42332;SDS011;27984;51.476;5.702;2023-09-19T00:05:50;18.73;;;3.60;;
42332;SDS011;27984;51.476;5.702;2023-09-19T00:08:16;18.95;;;3.15;;
42332;SDS011;27984;51.476;5.702;2023-09-19T00:10:47;20.88;;;3.33;;
42332;SDS011;27984;51.476;5.702;2023-09-19T00:13:13;13.25;;;2.97;;
42332;SDS011;27984;51.476;5.702;2023-09-19T00:15:40;16.15;;;3.33;;
42332;SDS011;27984;51.476;5.702;2023-09-19T00:18:07;17.10;;;3.65;;
42332;SDS011;27984;51.476;5.702;2023-09-19T00:20:37;18.77;;;3.30;;
42332;SDS011;27984;51.476;5.702;2023-09-19T00:23:03;16.83;;;2.97;;
42332;SDS011;27984;51.476;5.702;2023-09-19T00:25:29;17.02;;;3.30;;
42332;SDS011;27984;51.476;5.702;2023-09-19T00:27:57;23.75;;;3.80;;
42332;SDS011;27984;51.476;5.702;2023-09-19T00:30:23;13.20;;;2.83;;
42332;SDS011;27984;51.476;5.702;2023-09-19T00:32:49;18.95;;;2.83;;
42332;SDS011;27984;51.476;5.702;2023-09-19T00:35:20;14.05;;;2.95;;
42332;SDS011;27984;51.476;5.702;2023-09-19T00:37:48;13.95;;;2.67;;
42332;SDS011;27984;51.476;5.702;2023-09-19T00:40:14;20.77;;;3.22;;
42332;SDS011;27984;51.476;5.702;2023-09-19T00:42:41;13.07;;;2.97;;
42332;SDS011;27984;51.476;5.702;2023-09-19T00:45:08;18.90;;;2.90;;
42332;SDS011;27984;51.476;5.702;2023-09-19T00:47:36;15.35;;;2.88;;
42332;SDS011;27984;51.476;5.702;2023-09-19T00:50:03;16.27;;;2.80;;
42332;SDS011;27984;51.476;5.702;2023-09-19T00:52:29;17.70;;;3.03;;
42332;SDS011;27984;51.476;5.702;2023-09-19T00:54:57;13.13;;;2.72;;
42332;SDS011;27984;51.476;5.702;2023-09-19T00:57:25;14.43;;;3.28;;
42332;SDS011;27984;51.476;5.702;2023-09-19T00:59:51;11.48;;;2.35;;
42332;SDS011;27984;51.476;5.702;2023-09-19T01:02:19;17.23;;;3.08;;
42332;SDS011;27984;51.476;5.702;2023-09-19T01:04:46;18.45;;;2.70;;
42332;SDS011;27984;51.476;5.702;2023-09-19T01:07:12;20.17;;;3.35;;
42332;SDS011;27984;51.476;5.702;2023-09-19T01:09:40;18.67;;;2.75;;
42332;SDS011;27984;51.476;5.702;2023-09-19T01:12:06;14.57;;;2.95;;
42332;SDS011;27984;51.476;5.702;2023-09-19T01:14:36;14.95;;;2.67;;
42332;SDS011;27984;51.476;5.702;2023-09-19T01:17:05;10.15;;;2.28;;
42332;SDS011;27984;51.476;5.702;2023-09-19T01:22:23;15.50;;;2.92;;
42332;SDS011;27984;51.476;5.702;2023-09-19T01:25:03;16.30;;;3.00;;
42332;SDS011;27984;51.476;5.702;2023-09-19T01:30:09;12.13;;;2.58;;
42332;SDS011;27984;51.476;5.702;2023-09-19T01:32:36;17.00;;;2.72;;
42332;SDS011;27984;51.476;5.702;2023-09-19T01:35:04;11.25;;;2.35;;
42332;SDS011;27984;51.476;5.702;2023-09-19T01:37:30;14.27;;;2.85;;
42332;SDS011;27984;51.476;5.702;2023-09-19T01:40:03;14.75;;;3.28;;
42332;SDS011;27984;51.476;5.702;2023-09-19T01:42:44;11.50;;;2.60;;
42332;SDS011;27984;51.476;5.702;2023-09-19T01:45:11;14.13;;;2.92;;
42332;SDS011;27984;51.476;5.702;2023-09-19T01:47:51;10.02;;;2.47;;
42332;SDS011;27984;51.476;5.702;2023-09-19T01:52:54;14.27;;;2.55;;
42332;SDS011;27984;51.476;5.702;2023-09-19T01:55:23;20.85;;;3.10;;
42332;SDS011;27984;51.476;5.702;2023-09-19T01:58:37;16.92;;;2.85;;
42332;SDS011;27984;51.476;5.702;2023-09-19T02:00:37;15.40;;;2.72;;
42332;SDS011;27984;51.476;5.702;2023-09-19T02:03:04;13.60;;;2.45;;
42332;SDS011;27984;51.476;5.702;2023-09-19T02:05:30;12.52;;;2.60;;
42332;SDS011;27984;51.476;5.702;2023-09-19T02:07:56;10.10;;;2.50;;
42332;SDS011;27984;51.476;5.702;2023-09-19T02:10:23;15.07;;;2.90;;
42332;SDS011;27984;51.476;5.702;2023-09-19T02:12:50;10.98;;;2.40;;
42332;SDS011;27984;51.476;5.702;2023-09-19T02:15:16;12.88;;;2.33;;
42332;SDS011;27984;51.476;5.702;2023-09-19T02:17:45;9.00;;;2.47;;
42332;SDS011;27984;51.476;5.702;2023-09-19T02:20:11;12.50;;;2.42;;
42332;SDS011;27984;51.476;5.702;2023-09-19T02:22:38;11.75;;;2.83;;
42332;SDS011;27984;51.476;5.702;2023-09-19T02:25:04;14.75;;;2.72;;
42332;SDS011;27984;51.476;5.702;2023-09-19T02:27:30;13.25;;;2.60;;
42332;SDS011;27984;51.476;5.702;2023-09-19T02:29:56;14.57;;;3.08;;
42332;SDS011;27984;51.476;5.702;2023-09-19T02:32:22;11.70;;;2.30;;
42332;SDS011;27984;51.476;5.702;2023-09-19T02:34:48;14.43;;;2.63;;
42332;SDS011;27984;51.476;5.702;2023-09-19T02:37:16;9.05;;;2.33;;
42332;SDS011;27984;51.476;5.702;2023-09-19T02:39:44;15.18;;;3.03;;
42332;SDS011;27984;51.476;5.702;2023-09-19T02:42:10;11.80;;;2.97;;
42332;SDS011;27984;51.476;5.702;2023-09-19T02:44:36;11.45;;;2.33;;
42332;SDS011;27984;51.476;5.702;2023-09-19T02:47:03;10.13;;;2.50;;
42332;SDS011;27984;51.476;5.702;2023-09-19T02:49:29;9.65;;;2.47;;
42332;SDS011;27984;51.476;5.702;2023-09-19T02:51:55;13.10;;;2.45;;
42332;SDS011;27984;51.476;5.702;2023-09-19T02:54:23;12.90;;;2.50;;
42332;SDS011;27984;51.476;5.702;2023-09-19T02:56:49;9.77;;;2.45;;
42332;SDS011;27984;51.476;5.702;2023-09-19T02:59:15;14.50;;;2.50;;
42332;SDS011;27984;51.476;5.702;2023-09-19T03:01:44;12.88;;;2.20;;
42332;SDS011;27984;51.476;5.702;2023-09-19T03:04:13;16.55;;;2.55;;
42332;SDS011;27984;51.476;5.702;2023-09-19T03:06:41;11.43;;;2.28;;
42332;SDS011;27984;51.476;5.702;2023-09-19T03:09:07;13.60;;;2.75;;
42332;SDS011;27984;51.476;5.702;2023-09-19T03:11:36;10.68;;;2.30;;
42332;SDS011;27984;51.476;5.702;2023-09-19T03:14:02;13.80;;;2.45;;
42332;SDS011;27984;51.476;5.702;2023-09-19T03:16:29;15.48;;;2.50;;
42332;SDS011;27984;51.476;5.702;2023-09-19T03:18:55;13.80;;;2.28;;
42332;SDS011;27984;51.476;5.702;2023-09-19T03:21:21;11.20;;;2.25;;
42332;SDS011;27984;51.476;5.702;2023-09-19T03:23:46;14.20;;;2.35;;
42332;SDS011;27984;51.476;5.702;2023-09-19T03:26:12;11.57;;;2.45;;
42332;SDS011;27984;51.476;5.702;2023-09-19T03:28:42;14.45;;;2.67;;
42332;SDS011;27984;51.476;5.702;2023-09-19T03:31:08;10.55;;;2.45;;
42332;SDS011;27984;51.476;5.702;2023-09-19T03:33:34;11.02;;;2.35;;
42332;SDS011;27984;51.476;5.702;2023-09-19T03:36:00;10.70;;;2.33;;
42332;SDS011;27984;51.476;5.702;2023-09-19T03:38:30;13.77;;;2.60;;
42332;SDS011;27984;51.476;5.702;2023-09-19T03:40:56;17.15;;;2.60;;
42332;SDS011;27984;51.476;5.702;2023-09-19T03:43:22;12.27;;;2.70;;
42332;SDS011;27984;51.476;5.702;2023-09-19T03:45:48;13.65;;;2.70;;
42332;SDS011;27984;51.476;5.702;2023-09-19T03:48:15;13.20;;;2.85;;
42332;SDS011;27984;51.476;5.702;2023-09-19T03:50:42;14.75;;;2.88;;
42332;SDS011;27984;51.476;5.702;2023-09-19T03:53:09;14.38;;;3.05;;
42332;SDS011;27984;51.476;5.702;2023-09-19T03:55:35;11.35;;;3.10;;
42332;SDS011;27984;51.476;5.702;2023-09-19T03:58:04;14.27;;;2.95;;
42332;SDS011;27984;51.476;5.702;2023-09-19T04:00:30;12.05;;;2.85;;
42332;SDS011;27984;51.476;5.702;2023-09-19T04:02:56;14.80;;;3.30;;
42332;SDS011;27984;51.476;5.702;2023-09-19T04:05:22;13.90;;;2.90;;
42332;SDS011;27984;51.476;5.702;2023-09-19T04:07:49;13.05;;;3.20;;
42332;SDS011;27984;51.476;5.702;2023-09-19T04:10:15;13.30;;;3.05;;
42332;SDS011;27984;51.476;5.702;2023-09-19T04:12:41;13.93;;;3.08;;
42332;SDS011;27984;51.476;5.702;2023-09-19T04:15:15;16.20;;;2.90;;
42332;SDS011;27984;51.476;5.702;2023-09-19T04:17:41;15.93;;;3.20;;
42332;SDS011;27984;51.476;5.702;2023-09-19T04:20:07;13.60;;;2.83;;
42332;SDS011;27984;51.476;5.702;2023-09-19T04:22:37;12.55;;;2.63;;
42332;SDS011;27984;51.476;5.702;2023-09-19T04:25:03;16.10;;;3.25;;
42332;SDS011;27984;51.476;5.702;2023-09-19T04:27:31;13.88;;;2.72;;
42332;SDS011;27984;51.476;5.702;2023-09-19T04:29:57;12.85;;;3.08;;
42332;SDS011;27984;51.476;5.702;2023-09-19T04:32:24;19.08;;;3.30;;
42332;SDS011;27984;51.476;5.702;2023-09-19T04:34:50;13.32;;;3.05;;
42332;SDS011;27984;51.476;5.702;2023-09-19T04:37:16;11.52;;;2.90;;
42332;SDS011;27984;51.476;5.702;2023-09-19T04:39:43;10.00;;;2.85;;
42332;SDS011;27984;51.476;5.702;2023-09-19T04:42:09;14.48;;;3.33;;
42332;SDS011;27984;51.476;5.702;2023-09-19T04:44:39;11.00;;;2.70;;
42332;SDS011;27984;51.476;5.702;2023-09-19T04:47:05;18.17;;;3.58;;
42332;SDS011;27984;51.476;5.702;2023-09-19T04:49:31;13.68;;;3.00;;
42332;SDS011;27984;51.476;5.702;2023-09-19T04:51:57;13.55;;;2.67;;
42332;SDS011;27984;51.476;5.702;2023-09-19T04:54:23;12.20;;;2.35;;
42332;SDS011;27984;51.476;5.702;2023-09-19T04:56:49;14.73;;;2.85;;
42332;SDS011;27984;51.476;5.702;2023-09-19T04:59:15;13.35;;;2.53;;
42332;SDS011;27984;51.476;5.702;2023-09-19T05:01:40;11.50;;;2.40;;
42332;SDS011;27984;51.476;5.702;2023-09-19T05:04:06;17.23;;;2.95;;
42332;SDS011;27984;51.476;5.702;2023-09-19T05:06:32;15.00;;;2.67;;
42332;SDS011;27984;51.476;5.702;2023-09-19T05:08:58;14.43;;;3.08;;
42332;SDS011;27984;51.476;5.702;2023-09-19T05:11:25;17.27;;;2.50;;
42332;SDS011;27984;51.476;5.702;2023-09-19T05:13:51;15.13;;;2.50;;
42332;SDS011;27984;51.476;5.702;2023-09-19T05:16:20;11.23;;;2.65;;
42332;SDS011;27984;51.476;5.702;2023-09-19T05:18:46;16.15;;;2.95;;
42332;SDS011;27984;51.476;5.702;2023-09-19T05:21:11;13.75;;;2.47;;
42332;SDS011;27984;51.476;5.702;2023-09-19T05:23:38;11.93;;;2.70;;
42332;SDS011;27984;51.476;5.702;2023-09-19T05:26:04;14.02;;;2.90;;
42332;SDS011;27984;51.476;5.702;2023-09-19T05:28:30;13.10;;;2.97;;
42332;SDS011;27984;51.476;5.702;2023-09-19T05:30:57;11.50;;;2.30;;
42332;SDS011;27984;51.476;5.702;2023-09-19T05:33:26;16.77;;;2.92;;
42332;SDS011;27984;51.476;5.702;2023-09-19T05:35:52;11.30;;;2.40;;
42332;SDS011;27984;51.476;5.702;2023-09-19T05:38:18;12.57;;;2.70;;
42332;SDS011;27984;51.476;5.702;2023-09-19T05:40:45;14.45;;;2.55;;
42332;SDS011;27984;51.476;5.702;2023-09-19T05:43:11;15.35;;;2.63;;
42332;SDS011;27984;51.476;5.702;2023-09-19T05:45:39;12.48;;;2.65;;
42332;SDS011;27984;51.476;5.702;2023-09-19T05:48:09;14.43;;;2.67;;
42332;SDS011;27984;51.476;5.702;2023-09-19T05:50:36;13.60;;;2.97;;
42332;SDS011;27984;51.476;5.702;2023-09-19T05:53:02;13.25;;;2.53;;
42332;SDS011;27984;51.476;5.702;2023-09-19T05:55:29;9.60;;;2.50;;
42332;SDS011;27984;51.476;5.702;2023-09-19T05:57:55;13.77;;;2.90;;
42332;SDS011;27984;51.476;5.702;2023-09-19T06:00:22;12.25;;;2.50;;
42332;SDS011;27984;51.476;5.702;2023-09-19T06:02:54;12.00;;;2.40;;
42332;SDS011;27984;51.476;5.702;2023-09-19T06:05:21;15.27;;;2.75;;
42332;SDS011;27984;51.476;5.702;2023-09-19T06:07:48;11.05;;;2.55;;
42332;SDS011;27984;51.476;5.702;2023-09-19T06:10:15;14.00;;;2.65;;
42332;SDS011;27984;51.476;5.702;2023-09-19T06:12:42;19.38;;;3.10;;
42332;SDS011;27984;51.476;5.702;2023-09-19T06:15:09;17.08;;;2.95;;
42332;SDS011;27984;51.476;5.702;2023-09-19T06:17:39;15.35;;;2.90;;
42332;SDS011;27984;51.476;5.702;2023-09-19T06:20:06;17.77;;;2.80;;
42332;SDS011;27984;51.476;5.702;2023-09-19T06:22:39;14.77;;;3.08;;
42332;SDS011;27984;51.476;5.702;2023-09-19T06:25:06;16.98;;;2.63;;
42332;SDS011;27984;51.476;5.702;2023-09-19T06:27:32;9.75;;;2.75;;
42332;SDS011;27984;51.476;5.702;2023-09-19T06:30:01;13.68;;;2.95;;
42332;SDS011;27984;51.476;5.702;2023-09-19T06:32:29;13.98;;;2.65;;
42332;SDS011;27984;51.476;5.702;2023-09-19T06:34:55;12.02;;;2.83;;
42332;SDS011;27984;51.476;5.702;2023-09-19T06:37:23;12.27;;;3.22;;
42332;SDS011;27984;51.476;5.702;2023-09-19T06:39:50;14.68;;;3.00;;
42332;SDS011;27984;51.476;5.702;2023-09-19T06:42:17;19.27;;;3.22;;
42332;SDS011;27984;51.476;5.702;2023-09-19T06:44:43;11.90;;;2.97;;
42332;SDS011;27984;51.476;5.702;2023-09-19T06:47:09;15.45;;;2.95;;
42332;SDS011;27984;51.476;5.702;2023-09-19T06:49:35;11.57;;;2.85;;
42332;SDS011;27984;51.476;5.702;2023-09-19T06:52:01;15.20;;;3.33;;
42332;SDS011;27984;51.476;5.702;2023-09-19T06:54:27;8.23;;;2.53;;
42332;SDS011;27984;51.476;5.702;2023-09-19T06:56:56;15.23;;;2.38;;
42332;SDS011;27984;51.476;5.702;2023-09-19T06:59:25;12.77;;;2.30;;
42332;SDS011;27984;51.476;5.702;2023-09-19T07:01:51;13.30;;;3.03;;
42332;SDS011;27984;51.476;5.702;2023-09-19T07:04:17;13.70;;;3.22;;
42332;SDS011;27984;51.476;5.702;2023-09-19T07:06:44;12.75;;;2.70;;
42332;SDS011;27984;51.476;5.702;2023-09-19T07:09:11;7.82;;;2.55;;
42332;SDS011;27984;51.476;5.702;2023-09-19T07:11:37;12.02;;;2.45;;
42332;SDS011;27984;51.476;5.702;2023-09-19T07:14:03;14.90;;;3.45;;
42332;SDS011;27984;51.476;5.702;2023-09-19T07:16:30;15.82;;;2.72;;
42332;SDS011;27984;51.476;5.702;2023-09-19T07:18:56;15.27;;;2.78;;
42332;SDS011;27984;51.476;5.702;2023-09-19T07:21:23;13.07;;;3.22;;
42332;SDS011;27984;51.476;5.702;2023-09-19T07:23:49;19.63;;;3.17;;
42332;SDS011;27984;51.476;5.702;2023-09-19T07:26:16;14.32;;;2.95;;
42332;SDS011;27984;51.476;5.702;2023-09-19T07:28:42;12.85;;;2.90;;
42332;SDS011;27984;51.476;5.702;2023-09-19T07:31:08;15.27;;;2.55;;
42332;SDS011;27984;51.476;5.702;2023-09-19T07:33:35;15.52;;;2.85;;
42332;SDS011;27984;51.476;5.702;2023-09-19T07:36:01;15.52;;;2.97;;
42332;SDS011;27984;51.476;5.702;2023-09-19T07:38:27;14.55;;;3.08;;
42332;SDS011;27984;51.476;5.702;2023-09-19T07:40:59;11.50;;;2.63;;
42332;SDS011;27984;51.476;5.702;2023-09-19T07:43:25;13.50;;;2.67;;
42332;SDS011;27984;51.476;5.702;2023-09-19T07:45:51;17.30;;;3.35;;
42332;SDS011;27984;51.476;5.702;2023-09-19T07:48:18;14.00;;;3.17;;
42332;SDS011;27984;51.476;5.702;2023-09-19T07:50:44;12.77;;;2.45;;
42332;SDS011;27984;51.476;5.702;2023-09-19T07:53:10;11.85;;;2.60;;
42332;SDS011;27984;51.476;5.702;2023-09-19T07:55:38;15.85;;;2.80;;
42332;SDS011;27984;51.476;5.702;2023-09-19T07:58:05;17.83;;;2.70;;
42332;SDS011;27984;51.476;5.702;2023-09-19T08:00:32;15.68;;;3.38;;
42332;SDS011;27984;51.476;5.702;2023-09-19T08:02:59;16.40;;;2.78;;
42332;SDS011;27984;51.476;5.702;2023-09-19T08:05:25;10.98;;;2.33;;
42332;SDS011;27984;51.476;5.702;2023-09-19T08:07:52;11.85;;;2.67;;
42332;SDS011;27984;51.476;5.702;2023-09-19T08:10:21;13.40;;;2.65;;
42332;SDS011;27984;51.476;5.702;2023-09-19T08:12:47;10.20;;;2.20;;
42332;SDS011;27984;51.476;5.702;2023-09-19T08:17:40;10.40;;;2.45;;
42332;SDS011;27984;51.476;5.702;2023-09-19T08:20:06;14.63;;;2.67;;
42332;SDS011;27984;51.476;5.702;2023-09-19T08:22:32;12.68;;;2.78;;
42332;SDS011;27984;51.476;5.702;2023-09-19T08:24:58;11.93;;;2.88;;
42332;SDS011;27984;51.476;5.702;2023-09-19T08:27:24;15.50;;;2.70;;
42332;SDS011;27984;51.476;5.702;2023-09-19T08:29:53;12.15;;;2.38;;
42332;SDS011;27984;51.476;5.702;2023-09-19T08:32:19;14.15;;;3.05;;
42332;SDS011;27984;51.476;5.702;2023-09-19T08:34:49;16.27;;;2.92;;
42332;SDS011;27984;51.476;5.702;2023-09-19T08:37:15;10.63;;;2.55;;
42332;SDS011;27984;51.476;5.702;2023-09-19T08:39:43;17.85;;;2.83;;
42332;SDS011;27984;51.476;5.702;2023-09-19T08:42:09;13.02;;;2.72;;
42332;SDS011;27984;51.476;5.702;2023-09-19T08:44:37;8.45;;;2.22;;
42332;SDS011;27984;51.476;5.702;2023-09-19T08:47:15;11.05;;;3.05;;
42332;SDS011;27984;51.476;5.702;2023-09-19T08:49:53;12.80;;;2.60;;
42332;SDS011;27984;51.476;5.702;2023-09-19T08:58:16;15.70;;;2.97;;
42332;SDS011;27984;51.476;5.702;2023-09-19T09:00:47;12.55;;;2.40;;
42332;SDS011;27984;51.476;5.702;2023-09-19T09:03:14;15.73;;;2.78;;
42332;SDS011;27984;51.476;5.702;2023-09-19T09:05:44;11.32;;;2.45;;
42332;SDS011;27984;51.476;5.702;2023-09-19T09:08:12;10.27;;;2.30;;
42332;SDS011;27984;51.476;5.702;2023-09-19T09:10:39;13.15;;;2.50;;
42332;SDS011;27984;51.476;5.702;2023-09-19T09:13:08;10.30;;;2.97;;
42332;SDS011;27984;51.476;5.702;2023-09-19T09:15:35;13.88;;;2.88;;
42332;SDS011;27984;51.476;5.702;2023-09-19T09:18:02;15.73;;;2.75;;
42332;SDS011;27984;51.476;5.702;2023-09-19T09:20:28;11.80;;;2.47;;
42332;SDS011;27984;51.476;5.702;2023-09-19T09:22:54;12.70;;;2.78;;
42332;SDS011;27984;51.476;5.702;2023-09-19T09:25:27;14.65;;;2.97;;
42332;SDS011;27984;51.476;5.702;2023-09-19T09:28:11;15.07;;;3.38;;
42332;SDS011;27984;51.476;5.702;2023-09-19T09:30:37;11.13;;;2.53;;
42332;SDS011;27984;51.476;5.702;2023-09-19T09:33:13;10.45;;;2.67;;
42332;SDS011;27984;51.476;5.702;2023-09-19T09:35:53;13.77;;;2.72;;
42332;SDS011;27984;51.476;5.702;2023-09-19T09:38:22;12.10;;;2.63;;
42332;SDS011;27984;51.476;5.702;2023-09-19T09:43:26;13.20;;;2.70;;
42332;SDS011;27984;51.476;5.702;2023-09-19T09:46:06;12.32;;;2.53;;
42332;SDS011;27984;51.476;5.702;2023-09-19T09:49:05;10.70;;;2.25;;
42332;SDS011;27984;51.476;5.702;2023-09-19T09:52:01;10.82;;;2.53;;
42332;SDS011;27984;51.476;5.702;2023-09-19T09:57:12;11.20;;;2.55;;
42332;SDS011;27984;51.476;5.702;2023-09-19T09:59:56;13.05;;;3.28;;
42332;SDS011;27984;51.476;5.702;2023-09-19T10:02:41;11.70;;;2.97;;
42332;SDS011;27984;51.476;5.702;2023-09-19T10:07:47;11.38;;;2.58;;
42332;SDS011;27984;51.476;5.702;2023-09-19T10:10:31;9.45;;;2.90;;
42332;SDS011;27984;51.476;5.702;2023-09-19T10:13:10;14.30;;;2.80;;
42332;SDS011;27984;51.476;5.702;2023-09-19T10:15:38;8.70;;;2.47;;
42332;SDS011;27984;51.476;5.702;2023-09-19T10:18:11;9.35;;;2.55;;
42332;SDS011;27984;51.476;5.702;2023-09-19T10:20:43;9.50;;;2.15;;
42332;SDS011;27984;51.476;5.702;2023-09-19T10:23:10;8.43;;;2.35;;
42332;SDS011;27984;51.476;5.702;2023-09-19T10:25:38;10.13;;;2.60;;
42332;SDS011;27984;51.476;5.702;2023-09-19T10:28:05;7.18;;;2.40;;
42332;SDS011;27984;51.476;5.702;2023-09-19T10:30:35;7.75;;;2.40;;
42332;SDS011;27984;51.476;5.702;2023-09-19T10:33:04;12.55;;;2.80;;
42332;SDS011;27984;51.476;5.702;2023-09-19T10:35:33;8.02;;;2.17;;
42332;SDS011;27984;51.476;5.702;2023-09-19T10:38:00;7.93;;;2.47;;
42332;SDS011;27984;51.476;5.702;2023-09-19T10:40:28;8.75;;;2.42;;
42332;SDS011;27984;51.476;5.702;2023-09-19T10:43:07;9.13;;;2.75;;
42332;SDS011;27984;51.476;5.702;2023-09-19T10:45:36;6.80;;;2.00;;
42332;SDS011;27984;51.476;5.702;2023-09-19T10:48:04;9.50;;;2.05;;
42332;SDS011;27984;51.476;5.702;2023-09-19T10:50:33;10.95;;;2.10;;
42332;SDS011;27984;51.476;5.702;2023-09-19T10:53:02;8.80;;;2.30;;
42332;SDS011;27984;51.476;5.702;2023-09-19T10:55:30;8.30;;;2.42;;
42332;SDS011;27984;51.476;5.702;2023-09-19T10:57:57;11.07;;;2.47;;
42332;SDS011;27984;51.476;5.702;2023-09-19T11:00:25;9.70;;;2.00;;
42332;SDS011;27984;51.476;5.702;2023-09-19T11:05:37;7.82;;;2.10;;
42332;SDS011;27984;51.476;5.702;2023-09-19T11:08:06;8.77;;;2.25;;
42332;SDS011;27984;51.476;5.702;2023-09-19T11:10:45;8.80;;;2.40;;
42332;SDS011;27984;51.476;5.702;2023-09-19T11:13:27;6.93;;;2.20;;
42332;SDS011;27984;51.476;5.702;2023-09-19T11:26:40;6.95;;;1.75;;
42332;SDS011;27984;51.476;5.702;2023-09-19T11:29:30;9.75;;;2.35;;
42332;SDS011;27984;51.476;5.702;2023-09-19T11:31:57;8.27;;;1.85;;
42332;SDS011;27984;51.476;5.702;2023-09-19T11:42:45;8.85;;;1.90;;
42332;SDS011;27984;51.476;5.702;2023-09-19T11:48:05;8.00;;;1.98;;
42332;SDS011;27984;51.476;5.702;2023-09-19T11:50:34;7.03;;;1.70;;
42332;SDS011;27984;51.476;5.702;2023-09-19T11:53:05;9.98;;;2.05;;
42332;SDS011;27984;51.476;5.702;2023-09-19T11:55:31;9.07;;;1.92;;
42332;SDS011;27984;51.476;5.702;2023-09-19T11:57:57;7.35;;;1.42;;
42332;SDS011;27984;51.476;5.702;2023-09-19T12:00:24;6.05;;;2.00;;
42332;SDS011;27984;51.476;5.702;2023-09-19T12:02:52;5.10;;;1.27;;
42332;SDS011;27984;51.476;5.702;2023-09-19T12:05:30;3.75;;;1.42;;
42332;SDS011;27984;51.476;5.702;2023-09-19T12:07:58;6.10;;;1.40;;
42332;SDS011;27984;51.476;5.702;2023-09-19T12:10:24;9.93;;;1.70;;
42332;SDS011;27984;51.476;5.702;2023-09-19T12:12:51;7.07;;;1.50;;
42332;SDS011;27984;51.476;5.702;2023-09-19T12:15:25;8.63;;;1.50;;
42332;SDS011;27984;51.476;5.702;2023-09-19T12:18:00;7.75;;;1.63;;
42332;SDS011;27984;51.476;5.702;2023-09-19T12:20:42;6.82;;;1.10;;
42332;SDS011;27984;51.476;5.702;2023-09-19T12:26:02;2.55;;;1.00;;
42332;SDS011;27984;51.476;5.702;2023-09-19T12:34:16;4.47;;;1.27;;
42332;SDS011;27984;51.476;5.702;2023-09-19T12:36:44;5.38;;;1.52;;
42332;SDS011;27984;51.476;5.702;2023-09-19T12:39:10;5.05;;;1.30;;
42332;SDS011;27984;51.476;5.702;2023-09-19T12:41:44;6.50;;;1.23;;
42332;SDS011;27984;51.476;5.702;2023-09-19T12:44:12;4.85;;;1.00;;
42332;SDS011;27984;51.476;5.702;2023-09-19T12:46:39;4.22;;;1.10;;
42332;SDS011;27984;51.476;5.702;2023-09-19T12:49:14;7.03;;;1.33;;
42332;SDS011;27984;51.476;5.702;2023-09-19T12:51:42;4.75;;;1.23;;
42332;SDS011;27984;51.476;5.702;2023-09-19T12:54:11;7.70;;;1.20;;
42332;SDS011;27984;51.476;5.702;2023-09-19T12:56:41;7.28;;;1.10;;
42332;SDS011;27984;51.476;5.702;2023-09-19T12:59:09;3.78;;;1.08;;
42332;SDS011;27984;51.476;5.702;2023-09-19T13:01:38;4.38;;;1.20;;
42332;SDS011;27984;51.476;5.702;2023-09-19T13:04:10;4.47;;;1.10;;
42332;SDS011;27984;51.476;5.702;2023-09-19T13:06:50;5.47;;;1.10;;
42332;SDS011;27984;51.476;5.702;2023-09-19T13:09:17;4.20;;;1.02;;
42332;SDS011;27984;51.476;5.702;2023-09-19T13:11:45;4.88;;;1.10;;
42332;SDS011;27984;51.476;5.702;2023-09-19T13:14:24;3.70;;;0.80;;
42332;SDS011;27984;51.476;5.702;2023-09-19T13:22:35;4.17;;;0.80;;
42332;SDS011;27984;51.476;5.702;2023-09-19T13:24:52;5.43;;;1.20;;
42332;SDS011;27984;51.476;5.702;2023-09-19T13:27:18;3.38;;;0.90;;
42332;SDS011;27984;51.476;5.702;2023-09-19T13:29:44;3.13;;;0.82;;
42332;SDS011;27984;51.476;5.702;2023-09-19T13:32:10;8.85;;;1.20;;
42332;SDS011;27984;51.476;5.702;2023-09-19T13:34:39;5.75;;;1.17;;
42332;SDS011;27984;51.476;5.702;2023-09-19T13:37:05;3.17;;;0.90;;
42332;SDS011;27984;51.476;5.702;2023-09-19T13:39:31;5.15;;;0.93;;
42332;SDS011;27984;51.476;5.702;2023-09-19T13:41:57;3.53;;;0.80;;
42332;SDS011;27984;51.476;5.702;2023-09-19T13:44:24;6.78;;;1.10;;
42332;SDS011;27984;51.476;5.702;2023-09-19T13:46:53;3.40;;;1.00;;
42332;SDS011;27984;51.476;5.702;2023-09-19T13:49:21;5.05;;;0.70;;
42332;SDS011;27984;51.476;5.702;2023-09-19T13:51:48;6.80;;;1.10;;
42332;SDS011;27984;51.476;5.702;2023-09-19T13:54:14;3.70;;;0.82;;
42332;SDS011;27984;51.476;5.702;2023-09-19T13:56:40;2.70;;;0.98;;
42332;SDS011;27984;51.476;5.702;2023-09-19T13:59:06;6.15;;;1.00;;
42332;SDS011;27984;51.476;5.702;2023-09-19T14:01:32;3.55;;;1.02;;
42332;SDS011;27984;51.476;5.702;2023-09-19T14:03:58;6.43;;;1.02;;
42332;SDS011;27984;51.476;5.702;2023-09-19T14:06:24;4.30;;;1.40;;
42332;SDS011;27984;51.476;5.702;2023-09-19T14:08:50;5.32;;;1.13;;
42332;SDS011;27984;51.476;5.702;2023-09-19T14:11:17;7.50;;;1.15;;
42332;SDS011;27984;51.476;5.702;2023-09-19T14:13:43;3.42;;;1.00;;
42332;SDS011;27984;51.476;5.702;2023-09-19T14:16:12;4.93;;;1.10;;
42332;SDS011;27984;51.476;5.702;2023-09-19T14:18:38;3.30;;;1.10;;
42332;SDS011;27984;51.476;5.702;2023-09-19T14:21:05;4.72;;;1.10;;
42332;SDS011;27984;51.476;5.702;2023-09-19T14:23:37;4.07;;;1.10;;
42332;SDS011;27984;51.476;5.702;2023-09-19T14:26:03;6.82;;;1.15;;
42332;SDS011;27984;51.476;5.702;2023-09-19T14:28:32;4.70;;;1.25;;
42332;SDS011;27984;51.476;5.702;2023-09-19T14:31:04;5.88;;;1.08;;
42332;SDS011;27984;51.476;5.702;2023-09-19T14:33:31;5.50;;;1.17;;
42332;SDS011;27984;51.476;5.702;2023-09-19T14:35:57;5.53;;;1.38;;
42332;SDS011;27984;51.476;5.702;2023-09-19T14:38:23;6.18;;;1.02;;
42332;SDS011;27984;51.476;5.702;2023-09-19T14:40:58;9.07;;;1.45;;
42332;SDS011;27984;51.476;5.702;2023-09-19T14:43:25;3.03;;;1.48;;
42332;SDS011;27984;51.476;5.702;2023-09-19T14:45:51;6.85;;;1.30;;
42332;SDS011;27984;51.476;5.702;2023-09-19T14:48:17;7.03;;;1.40;;
42332;SDS011;27984;51.476;5.702;2023-09-19T14:50:43;5.40;;;1.27;;
42332;SDS011;27984;51.476;5.702;2023-09-19T14:53:09;3.60;;;1.17;;
42332;SDS011;27984;51.476;5.702;2023-09-19T14:55:37;5.30;;;1.23;;
42332;SDS011;27984;51.476;5.702;2023-09-19T14:58:06;5.68;;;1.00;;
42332;SDS011;27984;51.476;5.702;2023-09-19T15:00:33;4.45;;;1.42;;
42332;SDS011;27984;51.476;5.702;2023-09-19T15:03:00;4.63;;;1.55;;
42332;SDS011;27984;51.476;5.702;2023-09-19T15:05:26;4.72;;;1.40;;
42332;SDS011;27984;51.476;5.702;2023-09-19T15:07:55;5.57;;;1.00;;
42332;SDS011;27984;51.476;5.702;2023-09-19T15:10:21;7.97;;;1.15;;
42332;SDS011;27984;51.476;5.702;2023-09-19T15:12:47;4.50;;;1.30;;
42332;SDS011;27984;51.476;5.702;2023-09-19T15:15:13;6.78;;;1.40;;
42332;SDS011;27984;51.476;5.702;2023-09-19T15:17:39;4.13;;;1.08;;
42332;SDS011;27984;51.476;5.702;2023-09-19T15:20:06;7.15;;;2.20;;
42332;SDS011;27984;51.476;5.702;2023-09-19T15:22:33;6.20;;;2.28;;
42332;SDS011;27984;51.476;5.702;2023-09-19T15:25:02;3.45;;;1.30;;
42332;SDS011;27984;51.476;5.702;2023-09-19T15:27:29;4.78;;;1.45;;
42332;SDS011;27984;51.476;5.702;2023-09-19T15:29:56;4.25;;;1.10;;
42332;SDS011;27984;51.476;5.702;2023-09-19T15:32:23;5.38;;;1.45;;
42332;SDS011;27984;51.476;5.702;2023-09-19T15:34:49;7.03;;;1.80;;
42332;SDS011;27984;51.476;5.702;2023-09-19T15:37:15;4.63;;;1.50;;
42332;SDS011;27984;51.476;5.702;2023-09-19T15:39:41;8.80;;;1.40;;
42332;SDS011;27984;51.476;5.702;2023-09-19T15:42:08;5.10;;;1.50;;
42332;SDS011;27984;51.476;5.702;2023-09-19T15:44:34;4.40;;;1.08;;
42332;SDS011;27984;51.476;5.702;2023-09-19T15:47:01;5.50;;;1.27;;